createdAt,value
2019-01-17T00:01:05.479Z,31.85
2019-01-17T00:03:36.770Z,23.22
2019-01-17T00:06:11.047Z,23.70
2019-01-17T00:08:39.299Z,22.65
2019-01-17T00:11:23.210Z,20.17
2019-01-17T00:13:57.447Z,22.30
2019-01-17T00:16:31.667Z,22.17
2019-01-17T00:19:09.198Z,21.68
2019-01-17T00:21:46.807Z,20.10
2019-01-17T00:24:18.025Z,20.77
2019-01-17T00:26:47.046Z,21.82
2019-01-17T00:29:21.387Z,19.52
2019-01-17T00:31:53.061Z,20.40
2019-01-17T00:34:33.729Z,23.35
2019-01-17T00:37:19.225Z,22.67
2019-01-17T00:39:59.868Z,20.10
2019-01-17T00:42:30.869Z,23.18
2019-01-17T00:45:01.951Z,21.80
2019-01-17T00:47:33.096Z,17.80
2019-01-17T00:50:18.855Z,20.90
2019-01-17T00:53:05.367Z,24.37
2019-01-17T00:55:39.411Z,19.55
2019-01-17T00:58:13.713Z,20.40
2019-01-17T01:00:45.028Z,19.23
2019-01-17T01:03:22.436Z,20.70
2019-01-17T01:05:56.714Z,20.57
2019-01-17T01:08:25.297Z,21.87
2019-01-17T01:10:56.322Z,23.92
2019-01-17T01:13:35.324Z,17.67
2019-01-17T01:16:09.704Z,17.00
2019-01-17T01:18:41.783Z,21.77
2019-01-17T01:21:16.012Z,19.82
2019-01-17T01:23:47.267Z,18.87
2019-01-17T01:26:24.586Z,17.05
2019-01-17T01:29:09.681Z,19.92
2019-01-17T01:31:38.114Z,17.62
2019-01-17T01:34:06.493Z,22.10
2019-01-17T01:36:50.314Z,18.40
2019-01-17T01:39:18.816Z,15.10
2019-01-17T01:41:47.729Z,17.30
2019-01-17T01:44:32.819Z,15.27
2019-01-17T01:47:04.541Z,15.00
2019-01-17T01:49:32.889Z,14.03
2019-01-17T01:52:10.232Z,16.23
2019-01-17T01:54:36.948Z,14.93
2019-01-17T01:57:03.462Z,13.93
2019-01-17T01:59:30.494Z,14.20
2019-01-17T02:01:57.625Z,17.00
2019-01-17T02:04:24.110Z,14.30
2019-01-17T02:06:51.110Z,15.10
2019-01-17T02:09:17.800Z,14.10
2019-01-17T02:11:44.795Z,14.23
2019-01-17T02:14:11.739Z,12.73
2019-01-17T02:16:38.081Z,11.83
2019-01-17T02:19:07.141Z,13.00
2019-01-17T02:21:33.511Z,13.23
2019-01-17T02:23:59.984Z,12.50
2019-01-17T02:26:32.215Z,10.90
2019-01-17T02:28:59.178Z,12.93
2019-01-17T02:31:25.709Z,11.07
2019-01-17T02:33:52.134Z,10.80
2019-01-17T02:36:18.805Z,9.80
2019-01-17T02:38:45.637Z,10.23
2019-01-17T02:41:13.911Z,10.33
2019-01-17T02:43:40.270Z,9.13
2019-01-17T02:46:06.888Z,7.03
2019-01-17T02:48:33.539Z,7.47
2019-01-17T02:51:00.037Z,5.80
2019-01-17T02:53:26.884Z,6.07
2019-01-17T02:55:53.489Z,5.23
2019-01-17T02:58:20.590Z,5.05
2019-01-17T03:00:47.031Z,5.05
2019-01-17T03:03:13.441Z,4.57
2019-01-17T03:05:40.040Z,4.77
2019-01-17T03:08:06.577Z,5.37
2019-01-17T03:10:33.067Z,5.63
2019-01-17T03:12:59.537Z,6.77
2019-01-17T03:15:28.971Z,5.25
2019-01-17T03:17:55.569Z,5.17
2019-01-17T03:20:41.704Z,5.20
2019-01-17T03:23:08.050Z,4.70
2019-01-17T03:25:34.576Z,6.17
2019-01-17T03:28:01.115Z,4.20
2019-01-17T03:30:27.832Z,5.03
2019-01-17T03:32:54.875Z,3.70
2019-01-17T03:35:21.767Z,3.70
2019-01-17T03:37:48.561Z,3.13
2019-01-17T03:40:15.287Z,3.70
2019-01-17T03:42:41.735Z,2.83
2019-01-17T03:45:10.359Z,3.05
2019-01-17T03:47:36.724Z,3.10
2019-01-17T03:50:09.597Z,3.00
2019-01-17T03:52:36.457Z,2.90
2019-01-17T03:55:04.667Z,3.30
2019-01-17T03:57:31.153Z,2.77
2019-01-17T03:59:58.189Z,3.35
2019-01-17T04:02:24.830Z,4.70
2019-01-17T04:04:51.626Z,3.37
2019-01-17T04:07:18.243Z,3.72
2019-01-17T04:09:44.862Z,2.90
2019-01-17T04:12:11.253Z,3.02
2019-01-17T04:14:38.269Z,3.85
2019-01-17T04:17:04.777Z,3.00
2019-01-17T04:19:31.178Z,3.37
2019-01-17T04:21:58.356Z,3.80
2019-01-17T04:24:24.828Z,3.10
2019-01-17T04:27:00.528Z,3.60
2019-01-17T04:29:26.791Z,4.65
2019-01-17T04:31:53.381Z,2.90
2019-01-17T04:34:19.845Z,3.55
2019-01-17T04:36:46.628Z,3.27
2019-01-17T04:39:13.075Z,7.10
2019-01-17T04:41:39.597Z,3.92
2019-01-17T04:44:05.994Z,4.65
2019-01-17T04:46:32.842Z,5.10
2019-01-17T04:48:59.502Z,3.75
2019-01-17T04:51:26.034Z,5.20
2019-01-17T04:53:52.646Z,4.00
2019-01-17T04:56:19.565Z,4.10
2019-01-17T04:58:46.128Z,3.92
2019-01-17T05:01:13.515Z,4.55
2019-01-17T05:03:40.113Z,4.47
2019-01-17T05:06:06.998Z,5.30
2019-01-17T05:08:33.440Z,3.87
2019-01-17T05:10:59.858Z,4.85
2019-01-17T05:13:26.206Z,4.47
2019-01-17T05:15:53.876Z,5.20
2019-01-17T05:18:20.426Z,5.05
2019-01-17T05:20:47.151Z,5.57
2019-01-17T05:23:14.078Z,5.25
2019-01-17T05:25:40.569Z,5.90
2019-01-17T05:28:10.130Z,5.28
2019-01-17T05:30:36.806Z,4.80
2019-01-17T05:33:03.526Z,6.20
2019-01-17T05:35:30.052Z,4.80
2019-01-17T05:37:56.695Z,4.55
2019-01-17T05:40:23.157Z,5.55
2019-01-17T05:42:49.804Z,6.47
2019-01-17T05:45:16.677Z,5.60
2019-01-17T05:47:43.042Z,7.40
2019-01-17T05:50:16.267Z,8.13
2019-01-17T05:52:43.009Z,7.08
2019-01-17T05:55:09.417Z,6.53
2019-01-17T05:57:35.719Z,7.83
2019-01-17T06:00:05.985Z,8.47
2019-01-17T06:02:32.457Z,7.63
2019-01-17T06:04:59.127Z,6.47
2019-01-17T06:07:28.833Z,6.40
2019-01-17T06:09:55.783Z,6.10
2019-01-17T06:12:28.251Z,6.15
2019-01-17T06:14:55.131Z,7.17
2019-01-17T06:17:21.490Z,8.50
2019-01-17T06:19:48.567Z,5.10
2019-01-17T06:22:16.329Z,6.37
2019-01-17T06:24:44.893Z,8.25
2019-01-17T06:27:12.538Z,6.93
2019-01-17T06:29:39.031Z,8.33
2019-01-17T06:32:05.655Z,10.05
2019-01-17T06:34:31.916Z,8.13
2019-01-17T06:36:58.453Z,10.40
2019-01-17T06:39:25.039Z,10.03
2019-01-17T06:41:51.912Z,8.38
2019-01-17T06:44:20.538Z,9.03
2019-01-17T06:46:47.993Z,9.25
2019-01-17T06:49:14.370Z,8.15
2019-01-17T06:51:40.780Z,10.20
2019-01-17T06:54:07.100Z,8.88
2019-01-17T06:56:33.532Z,7.17
2019-01-17T06:58:59.805Z,6.90
2019-01-17T07:01:26.459Z,9.18
2019-01-17T07:03:53.447Z,8.30
2019-01-17T07:06:20.403Z,9.75
2019-01-17T07:08:46.801Z,11.33
2019-01-17T07:11:13.721Z,8.73
2019-01-17T07:13:40.108Z,11.70
2019-01-17T07:16:06.579Z,11.35
2019-01-17T07:18:33.300Z,9.25
2019-01-17T07:21:00.187Z,11.18
2019-01-17T07:23:26.796Z,8.80
2019-01-17T07:25:53.217Z,10.98
2019-01-17T07:28:19.765Z,8.95
2019-01-17T07:30:55.222Z,9.48
2019-01-17T07:33:24.206Z,10.58
2019-01-17T07:35:51.448Z,8.38
2019-01-17T07:38:18.079Z,12.07
2019-01-17T07:40:44.616Z,7.47
2019-01-17T07:43:11.427Z,13.93
2019-01-17T07:45:37.805Z,10.50
2019-01-17T07:48:04.707Z,9.68
2019-01-17T07:50:31.167Z,10.32
2019-01-17T07:52:57.499Z,11.97
2019-01-17T07:55:24.396Z,10.93
2019-01-17T07:57:51.067Z,13.03
2019-01-17T08:00:20.637Z,11.57
2019-01-17T08:02:55.517Z,11.78
2019-01-17T08:05:26.757Z,7.87
2019-01-17T08:07:55.454Z,11.03
2019-01-17T08:10:23.083Z,9.95
2019-01-17T08:12:51.914Z,9.10
2019-01-17T08:15:18.734Z,11.73
2019-01-17T08:17:47.068Z,11.55
2019-01-17T08:20:16.388Z,9.18
2019-01-17T08:22:43.275Z,11.00
2019-01-17T08:25:11.124Z,9.58
2019-01-17T08:27:38.187Z,7.95
2019-01-17T08:30:13.899Z,11.38
2019-01-17T08:32:40.674Z,9.10
2019-01-17T08:35:08.090Z,8.73
2019-01-17T08:37:34.366Z,9.80
2019-01-17T08:40:00.769Z,10.60
2019-01-17T08:42:27.281Z,10.17
2019-01-17T08:44:54.390Z,9.30
2019-01-17T08:47:23.571Z,7.53
2019-01-17T08:49:50.469Z,9.80
2019-01-17T08:52:18.045Z,9.90
2019-01-17T08:54:44.270Z,9.83
2019-01-17T08:57:10.710Z,10.13
2019-01-17T08:59:37.144Z,9.90
2019-01-17T09:02:03.701Z,9.97
2019-01-17T09:04:30.741Z,8.30
2019-01-17T09:06:57.180Z,12.85
2019-01-17T09:09:23.826Z,10.67
2019-01-17T09:11:50.324Z,9.55
2019-01-17T09:14:16.903Z,14.00
2019-01-17T09:16:43.682Z,11.83
2019-01-17T09:19:10.096Z,12.00
2019-01-17T09:21:36.442Z,10.00
2019-01-17T09:24:03.233Z,11.30
2019-01-17T09:26:29.648Z,9.05
2019-01-17T09:28:56.553Z,10.43
2019-01-17T09:31:23.060Z,11.23
2019-01-17T09:33:54.919Z,9.10
2019-01-17T09:36:22.413Z,9.47
2019-01-17T09:38:49.515Z,10.63
2019-01-17T09:41:15.989Z,11.23
2019-01-17T09:43:42.562Z,9.58
2019-01-17T09:46:09.494Z,11.63
2019-01-17T09:48:35.800Z,13.05
2019-01-17T09:51:02.223Z,9.23
2019-01-17T09:53:28.639Z,7.40
2019-01-17T09:55:54.969Z,10.15
2019-01-17T09:58:21.701Z,10.15
2019-01-17T10:00:48.296Z,9.70
2019-01-17T10:03:16.141Z,10.95
2019-01-17T10:05:42.645Z,11.25
2019-01-17T10:08:09.026Z,8.60
2019-01-17T10:10:35.599Z,11.50
2019-01-17T10:13:03.230Z,9.37
2019-01-17T10:15:42.688Z,10.40
2019-01-17T10:18:24.652Z,9.17
2019-01-17T10:21:00.635Z,9.40
2019-01-17T10:23:30.764Z,8.27
2019-01-17T10:26:21.147Z,7.73
2019-01-17T10:29:03.063Z,8.50
2019-01-17T10:31:57.552Z,10.07
2019-01-17T10:34:36.778Z,9.13
2019-01-17T10:37:27.095Z,8.80
2019-01-17T10:40:06.952Z,8.53
2019-01-17T10:42:46.191Z,10.13
2019-01-17T10:45:22.360Z,12.80
2019-01-17T10:48:15.819Z,11.57
2019-01-17T10:50:55.737Z,8.30
2019-01-17T10:53:25.915Z,12.53
2019-01-17T10:56:05.419Z,8.27
2019-01-17T10:58:50.606Z,11.90
2019-01-17T11:01:35.949Z,8.83
2019-01-17T11:04:27.947Z,7.67
2019-01-17T11:06:58.815Z,8.47
2019-01-17T11:09:32.141Z,6.90
2019-01-17T11:12:20.088Z,9.50
2019-01-17T11:14:53.426Z,7.57
2019-01-17T11:17:29.300Z,9.30
2019-01-17T11:20:16.671Z,8.43
2019-01-17T11:22:53.659Z,9.43
2019-01-17T11:25:48.581Z,7.37
2019-01-17T11:28:22.868Z,8.60
2019-01-17T11:30:56.208Z,11.07
2019-01-17T11:33:40.816Z,8.13
2019-01-17T11:36:16.753Z,10.87
2019-01-17T11:38:56.282Z,9.60
2019-01-17T11:41:41.454Z,7.67
2019-01-17T11:44:14.981Z,8.90
2019-01-17T11:46:54.360Z,9.90
2019-01-17T11:49:46.587Z,7.50
2019-01-17T11:52:42.903Z,9.77
2019-01-17T11:55:24.336Z,7.30
2019-01-17T11:58:17.472Z,9.80
2019-01-17T12:04:26.186Z,9.70
2019-01-17T12:06:48.602Z,10.63
2019-01-17T12:09:17.791Z,9.53
2019-01-17T12:11:55.921Z,9.67
2019-01-17T12:14:26.423Z,10.43
2019-01-17T12:17:04.522Z,9.97
2019-01-17T12:19:46.354Z,9.30
2019-01-17T12:22:15.893Z,6.70
2019-01-17T12:24:47.514Z,8.53
2019-01-17T12:27:20.879Z,5.00
2019-01-17T12:29:48.316Z,7.60
2019-01-17T12:32:23.553Z,7.20
2019-01-17T12:34:53.737Z,7.60
2019-01-17T12:37:20.696Z,6.97
2019-01-17T12:39:47.664Z,6.50
2019-01-17T12:42:14.667Z,6.17
2019-01-17T12:44:41.484Z,6.00
2019-01-17T12:47:07.812Z,8.50
2019-01-17T12:49:35.660Z,5.70
2019-01-17T12:52:02.058Z,8.30
2019-01-17T12:54:28.684Z,6.30
2019-01-17T12:56:55.103Z,13.03
2019-01-17T12:59:24.447Z,6.57
2019-01-17T13:01:51.519Z,2.60
2019-01-17T13:04:19.169Z,4.23
2019-01-17T13:06:45.641Z,3.47
2019-01-17T13:09:12.330Z,2.97
2019-01-17T13:11:38.742Z,3.75
2019-01-17T13:14:05.501Z,4.03
2019-01-17T13:16:31.914Z,4.37
2019-01-17T13:18:58.710Z,6.67
2019-01-17T13:21:25.225Z,3.80
2019-01-17T13:23:51.878Z,4.25
2019-01-17T13:26:18.899Z,4.90
2019-01-17T13:28:45.245Z,5.05
2019-01-17T13:31:11.585Z,3.62
2019-01-17T13:33:38.236Z,3.87
2019-01-17T13:36:07.300Z,7.10
2019-01-17T13:38:34.305Z,5.00
2019-01-17T13:41:00.674Z,6.28
2019-01-17T13:43:28.576Z,5.13
2019-01-17T13:45:55.313Z,3.00
2019-01-17T13:48:22.232Z,3.60
2019-01-17T13:50:49.299Z,3.40
2019-01-17T13:53:17.545Z,4.90
2019-01-17T13:55:48.748Z,5.83
2019-01-17T13:58:15.131Z,2.60
2019-01-17T14:00:44.288Z,3.67
2019-01-17T14:03:10.587Z,4.60
2019-01-17T14:05:36.834Z,2.20
2019-01-17T14:08:04.428Z,2.17
2019-01-17T14:10:31.042Z,2.87
2019-01-17T14:13:00.606Z,3.25
2019-01-17T14:15:30.511Z,2.55
2019-01-17T14:17:57.439Z,3.22
2019-01-17T14:20:24.392Z,5.20
2019-01-17T14:22:51.257Z,5.58
2019-01-17T14:25:18.314Z,4.77
2019-01-17T14:27:48.012Z,2.50
2019-01-17T14:30:18.733Z,3.05
2019-01-17T14:32:45.166Z,3.45
2019-01-17T14:35:11.571Z,3.43
2019-01-17T14:37:37.858Z,6.47
2019-01-17T14:40:07.062Z,2.45
2019-01-17T14:42:33.422Z,2.52
2019-01-17T14:44:59.827Z,3.55
2019-01-17T14:47:26.248Z,2.65
2019-01-17T14:49:55.896Z,5.92
2019-01-17T14:52:22.487Z,2.35
2019-01-17T14:54:51.769Z,2.90
2019-01-17T14:57:20.737Z,2.20
2019-01-17T14:59:47.426Z,3.05
2019-01-17T15:02:13.880Z,3.47
2019-01-17T15:04:40.569Z,2.85
2019-01-17T15:07:06.948Z,1.98
2019-01-17T15:09:33.274Z,3.27
2019-01-17T15:12:00.042Z,6.03
2019-01-17T15:14:27.468Z,3.62
2019-01-17T15:16:54.363Z,3.55
2019-01-17T15:19:21.048Z,3.87
2019-01-17T15:21:47.859Z,2.90
2019-01-17T15:24:14.636Z,3.20
2019-01-17T15:26:40.891Z,2.40
2019-01-17T15:29:07.468Z,3.98
2019-01-17T15:31:33.921Z,6.10
2019-01-17T15:34:00.468Z,3.58
2019-01-17T15:36:27.384Z,4.72
2019-01-17T15:38:54.399Z,2.65
2019-01-17T15:41:20.905Z,4.50
2019-01-17T15:43:47.573Z,3.80
2019-01-17T15:46:14.208Z,4.85
2019-01-17T15:48:40.652Z,3.25
2019-01-17T15:51:07.602Z,3.22
2019-01-17T15:53:34.339Z,3.25
2019-01-17T15:56:00.955Z,2.33
2019-01-17T15:58:28.115Z,3.75
2019-01-17T16:00:54.787Z,2.60
2019-01-17T16:03:21.116Z,3.40
2019-01-17T16:05:48.691Z,2.10
2019-01-17T16:08:16.169Z,3.25
2019-01-17T16:10:42.760Z,4.83
2019-01-17T16:13:09.052Z,4.22
2019-01-17T16:15:35.857Z,3.50
2019-01-17T16:18:02.658Z,3.52
2019-01-17T16:20:29.408Z,3.05
2019-01-17T16:22:55.938Z,3.17
2019-01-17T16:25:22.531Z,2.37
2019-01-17T16:27:52.963Z,5.20
2019-01-17T16:30:19.929Z,3.30
2019-01-17T16:32:46.393Z,2.42
2019-01-17T16:35:12.819Z,3.77
2019-01-17T16:37:39.340Z,2.98
2019-01-17T16:40:08.841Z,1.72
2019-01-17T16:42:35.184Z,2.50
2019-01-17T16:45:01.734Z,1.92
2019-01-17T16:47:28.183Z,1.85
2019-01-17T16:49:54.838Z,1.90
2019-01-17T16:52:21.743Z,1.70
2019-01-17T16:54:48.678Z,2.72
2019-01-17T16:57:15.354Z,2.70
2019-01-17T16:59:43.580Z,2.62
2019-01-17T17:02:09.951Z,2.25
2019-01-17T17:04:36.386Z,2.65
2019-01-17T17:07:02.896Z,2.12
2019-01-17T17:09:29.532Z,2.60
2019-01-17T17:11:56.391Z,2.60
2019-01-17T17:14:23.206Z,2.77
2019-01-17T17:16:49.914Z,3.35
2019-01-17T17:19:16.304Z,2.40
2019-01-17T17:21:42.626Z,3.45
2019-01-17T17:24:09.525Z,2.55
2019-01-17T17:26:36.014Z,4.42
2019-01-17T17:29:04.248Z,3.58
2019-01-17T17:31:30.534Z,5.00
2019-01-17T17:33:57.462Z,3.10
2019-01-17T17:36:24.374Z,4.72
2019-01-17T17:38:50.636Z,3.75
2019-01-17T17:41:17.215Z,3.25
2019-01-17T17:43:43.467Z,3.47
2019-01-17T17:46:11.777Z,3.00
2019-01-17T17:48:38.689Z,2.70
2019-01-17T17:51:05.109Z,3.52
2019-01-17T17:53:31.791Z,2.35
2019-01-17T17:55:58.528Z,4.05
2019-01-17T17:58:24.870Z,4.15
2019-01-17T18:00:53.147Z,4.45
2019-01-17T18:03:19.763Z,2.02
2019-01-17T18:05:46.441Z,2.30
2019-01-17T18:08:12.687Z,2.00
2019-01-17T18:10:38.937Z,1.65
2019-01-17T18:13:05.414Z,3.02
2019-01-17T18:15:31.874Z,7.72
2019-01-17T18:17:58.610Z,9.93
2019-01-17T18:20:28.081Z,5.00
2019-01-17T18:22:55.007Z,2.50
2019-01-17T18:25:21.763Z,2.05
2019-01-17T18:27:48.294Z,2.27
2019-01-17T18:30:22.090Z,2.50
2019-01-17T18:32:51.983Z,2.40
2019-01-17T18:35:18.873Z,4.50
2019-01-17T18:37:46.958Z,2.27
2019-01-17T18:40:18.108Z,2.77
2019-01-17T18:42:44.708Z,2.00
2019-01-17T18:45:14.845Z,2.50
2019-01-17T18:47:41.345Z,2.02
2019-01-17T18:50:11.270Z,2.20
2019-01-17T18:52:39.386Z,2.10
2019-01-17T18:55:06.493Z,2.10
2019-01-17T18:57:33.089Z,2.15
2019-01-17T18:59:59.337Z,2.72
2019-01-17T19:02:26.243Z,2.62
2019-01-17T19:04:52.619Z,2.62
2019-01-17T19:07:18.909Z,3.33
2019-01-17T19:09:46.752Z,3.47
2019-01-17T19:12:16.443Z,3.00
2019-01-17T19:14:43.139Z,1.70
2019-01-17T19:17:09.822Z,2.35
2019-01-17T19:19:36.188Z,3.33
2019-01-17T19:22:03.223Z,3.92
2019-01-17T19:24:29.578Z,1.62
2019-01-17T19:26:55.823Z,2.75
2019-01-17T19:29:23.278Z,2.20
2019-01-17T19:31:49.757Z,2.08
2019-01-17T19:34:18.664Z,2.92
2019-01-17T19:36:47.613Z,2.20
2019-01-17T19:39:16.270Z,2.30
2019-01-17T19:41:44.319Z,4.78
2019-01-17T19:44:10.736Z,2.17
2019-01-17T19:46:37.026Z,3.25
2019-01-17T19:49:03.594Z,3.10
2019-01-17T19:51:30.731Z,3.58
2019-01-17T19:53:57.111Z,5.42
2019-01-17T19:56:23.354Z,3.15
2019-01-17T19:58:49.727Z,4.55
2019-01-17T20:01:16.647Z,5.78
2019-01-17T20:03:43.029Z,7.87
2019-01-17T20:06:10.436Z,7.90
2019-01-17T20:08:37.209Z,5.20
2019-01-17T20:11:03.711Z,6.67
2019-01-17T20:13:30.623Z,5.67
2019-01-17T20:15:57.253Z,9.33
2019-01-17T20:18:23.905Z,6.22
2019-01-17T20:20:50.612Z,8.50
2019-01-17T20:23:17.011Z,7.17
2019-01-17T20:25:43.347Z,8.75
2019-01-17T20:28:10.119Z,8.20
2019-01-17T20:30:36.715Z,5.25
2019-01-17T20:33:03.397Z,4.65
2019-01-17T20:35:31.475Z,3.20
2019-01-17T20:38:00.140Z,6.62
2019-01-17T20:40:26.907Z,2.35
2019-01-17T20:42:53.348Z,3.55
2019-01-17T20:45:29.193Z,2.17
2019-01-17T20:47:55.818Z,2.55
2019-01-17T20:50:48.923Z,2.58
2019-01-17T20:53:26.854Z,2.80
2019-01-17T20:55:52.424Z,3.37
2019-01-17T20:58:19.428Z,4.42
2019-01-17T21:00:55.549Z,2.58
2019-01-17T21:03:21.816Z,3.05
2019-01-17T21:05:48.054Z,4.55
2019-01-17T21:08:14.418Z,2.80
2019-01-17T21:10:40.671Z,2.60
2019-01-17T21:13:07.325Z,3.37
2019-01-17T21:15:34.124Z,2.40
2019-01-17T21:18:00.620Z,3.45
2019-01-17T21:20:27.152Z,3.65
2019-01-17T21:22:53.950Z,3.37
2019-01-17T21:25:20.464Z,3.70
2019-01-17T21:27:47.616Z,3.65
2019-01-17T21:30:20.133Z,3.87
2019-01-17T21:32:47.779Z,3.60
2019-01-17T21:35:14.289Z,3.22
2019-01-17T21:37:41.017Z,6.45
2019-01-17T21:40:16.247Z,3.27
2019-01-17T21:42:42.753Z,3.35
2019-01-17T21:45:12.278Z,3.30
2019-01-17T21:47:38.847Z,2.87
2019-01-17T21:50:22.698Z,3.25
2019-01-17T21:52:49.453Z,3.00
2019-01-17T21:55:15.833Z,3.30
2019-01-17T21:57:42.679Z,3.52
2019-01-17T22:00:21.052Z,2.20
2019-01-17T22:02:47.413Z,2.70
2019-01-17T22:05:14.197Z,3.77
2019-01-17T22:07:41.112Z,3.30
2019-01-17T22:10:11.288Z,2.17
2019-01-17T22:12:38.074Z,2.98
2019-01-17T22:15:20.290Z,3.70
2019-01-17T22:17:47.094Z,2.75
2019-01-17T22:20:13.964Z,2.35
2019-01-17T22:22:40.483Z,3.05
2019-01-17T22:25:13.077Z,3.52
2019-01-17T22:27:39.743Z,3.02
2019-01-17T22:30:13.713Z,4.90
2019-01-17T22:32:40.359Z,3.10
2019-01-17T22:35:06.947Z,3.00
2019-01-17T22:37:33.247Z,3.20
2019-01-17T22:39:59.908Z,5.53
2019-01-17T22:42:26.925Z,3.37
2019-01-17T22:44:53.253Z,5.53
2019-01-17T22:47:19.858Z,3.75
2019-01-17T22:49:46.140Z,4.33
2019-01-17T22:52:13.292Z,3.20
2019-01-17T22:54:39.517Z,3.30
2019-01-17T22:57:06.390Z,8.68
2019-01-17T22:59:32.681Z,4.05
2019-01-17T23:01:59.662Z,2.70
2019-01-17T23:04:26.847Z,4.15
2019-01-17T23:06:53.529Z,3.90
2019-01-17T23:09:19.823Z,2.80
2019-01-17T23:11:46.494Z,3.42
2019-01-17T23:14:12.959Z,5.33
2019-01-17T23:16:39.462Z,2.75
2019-01-17T23:19:08.953Z,2.58
2019-01-17T23:21:35.343Z,3.25
2019-01-17T23:24:01.867Z,5.12
2019-01-17T23:26:28.945Z,3.42
2019-01-17T23:28:55.577Z,4.45
2019-01-17T23:31:21.999Z,6.47
2019-01-17T23:33:48.398Z,3.95
2019-01-17T23:36:15.201Z,4.40
2019-01-17T23:38:41.804Z,3.33
2019-01-17T23:41:08.248Z,2.50
2019-01-17T23:43:35.292Z,3.25
2019-01-17T23:46:01.651Z,4.10
2019-01-17T23:48:28.107Z,4.10
2019-01-17T23:50:54.786Z,4.92
2019-01-17T23:53:21.197Z,5.50
2019-01-17T23:55:47.527Z,3.70
2019-01-17T23:58:13.855Z,5.20
